Wichita Mid Continent Airport
KICT : rendu visible

Aérodrome :











RETROUVEZ-NOUS SUR...

 
LOGIN :

Register | Disclaimer

   EN    FR    IT 

 















- Airport Elevation : 1333 ft
- IATA code : ICT


KICT - Wichita Mid Continent

CURRENT METAR :
  • 052153Z 13005KT 10SM FEW150 SCT180 BKN210 16/M03 A3007 RMK AO2 SLP185 T01561033

EXPIRED METARs :
  • 052053Z 14004KT 10SM FEW150 SCT180 BKN210 15/M03 A3008 RMK AO2 SLP189 T01501033 56026

TAF KICT
Valid from the 05 at 18:00 until the 06 at 18:00 UTC


051745Z 0518/0618 VRB03KT P6SM SCT200
FM052300 14008KT P6SM FEW250
FM061000 16015G24KT P6SM BKN050
FM061200 16016G25KT P6SM OVC030 WS020/20040KT
FM061500 18019G28KT P6SM OVC030
KZKC FIR / North America





SOURCES & CREDITS :

   NOAA       Earth
Advisory